createdAt,value
2023-04-08T00:00:11.063Z,38.92
2023-04-08T00:02:38.049Z,37.00
2023-04-08T00:05:05.551Z,29.23
2023-04-08T00:07:32.434Z,36.80
2023-04-08T00:09:59.401Z,38.17
2023-04-08T00:12:26.525Z,39.92
2023-04-08T00:14:53.337Z,37.58
2023-04-08T00:17:20.082Z,40.47
2023-04-08T00:19:46.789Z,39.20
2023-04-08T00:22:13.593Z,31.15
2023-04-08T00:24:41.028Z,36.30
2023-04-08T00:27:07.734Z,38.85
2023-04-08T00:29:34.490Z,35.72
2023-04-08T00:32:01.274Z,37.50
2023-04-08T00:34:27.985Z,35.70
2023-04-08T00:36:54.710Z,38.53
2023-04-08T00:39:21.448Z,36.50
2023-04-08T00:41:48.172Z,30.95
2023-04-08T00:44:14.943Z,37.97
2023-04-08T00:46:41.891Z,30.52
2023-04-08T00:49:09.132Z,53.70
2023-04-08T00:51:38.754Z,40.35
2023-04-08T00:54:05.806Z,38.55
2023-04-08T00:56:33.540Z,39.65
2023-04-08T00:59:01.400Z,40.88
2023-04-08T01:01:43.294Z,40.08
2023-04-08T01:04:44.007Z,43.53
2023-04-08T01:07:18.804Z,39.97
2023-04-08T01:09:52.234Z,33.60
2023-04-08T01:12:27.536Z,40.85
2023-04-08T01:15:01.786Z,34.10
2023-04-08T01:17:30.714Z,43.28
2023-04-08T01:19:59.816Z,35.65
2023-04-08T01:22:35.368Z,41.20
2023-04-08T01:25:17.216Z,44.60
2023-04-08T01:27:44.641Z,42.90
2023-04-08T01:30:12.555Z,42.97
2023-04-08T01:32:40.363Z,41.88
2023-04-08T01:35:08.375Z,43.35
2023-04-08T01:37:37.146Z,42.95
2023-04-08T01:40:05.681Z,42.10
2023-04-08T01:42:33.937Z,43.65
2023-04-08T01:45:01.775Z,43.13
2023-04-08T01:47:29.973Z,46.67
2023-04-08T01:49:58.251Z,42.90
2023-04-08T01:52:27.006Z,43.28
2023-04-08T01:54:53.769Z,36.97
2023-04-08T01:57:26.066Z,37.55
2023-04-08T01:59:56.885Z,45.75
2023-04-08T02:02:26.791Z,36.00
2023-04-08T02:04:54.607Z,45.55
2023-04-08T02:07:21.747Z,43.65
2023-04-08T02:09:48.581Z,38.63
2023-04-08T02:12:15.550Z,37.00
2023-04-08T02:14:42.424Z,38.33
2023-04-08T02:17:19.795Z,44.38
2023-04-08T02:19:57.415Z,45.33
2023-04-08T02:22:38.294Z,44.88
2023-04-08T02:25:08.733Z,47.60
2023-04-08T02:27:37.900Z,50.50
2023-04-08T02:30:08.376Z,49.63
2023-04-08T02:32:36.346Z,47.42
2023-04-08T02:35:04.797Z,48.38
2023-04-08T02:37:32.404Z,43.92
2023-04-08T02:42:26.637Z,47.85
2023-04-08T02:44:53.441Z,38.20
2023-04-08T02:47:20.477Z,40.45
2023-04-08T02:49:47.555Z,46.63
2023-04-08T02:52:14.294Z,46.08
2023-04-08T02:54:41.262Z,48.40
2023-04-08T02:57:08.020Z,48.55
2023-04-08T02:59:37.861Z,40.95
2023-04-08T03:02:04.672Z,48.78
2023-04-08T03:04:31.532Z,49.78
2023-04-08T03:06:58.337Z,49.35
2023-04-08T03:09:25.136Z,52.90
2023-04-08T03:11:53.374Z,40.65
2023-04-08T03:14:21.182Z,49.17
2023-04-08T03:16:48.040Z,51.75
2023-04-08T03:19:14.901Z,48.30
2023-04-08T03:21:41.664Z,50.97
2023-04-08T03:24:08.440Z,49.72
2023-04-08T03:26:35.498Z,48.55
2023-04-08T03:29:02.224Z,48.70
2023-04-08T03:31:29.427Z,49.88
2023-04-08T03:33:56.324Z,47.60
2023-04-08T03:36:23.143Z,48.70
2023-04-08T03:38:50.031Z,48.58
2023-04-08T03:41:16.957Z,39.95
2023-04-08T03:43:43.762Z,46.60
2023-04-08T03:46:10.927Z,42.00
2023-04-08T03:48:37.698Z,47.65
2023-04-08T03:51:04.396Z,46.78
2023-04-08T03:53:31.154Z,48.65
2023-04-08T03:55:58.278Z,47.95
2023-04-08T03:58:25.246Z,47.30
2023-04-08T04:00:52.288Z,49.38
2023-04-08T04:03:19.218Z,49.33
2023-04-08T04:05:45.955Z,49.47
2023-04-08T04:08:12.682Z,46.05
2023-04-08T04:10:39.370Z,47.22
2023-04-08T04:13:06.119Z,50.05
2023-04-08T04:15:32.900Z,43.25
2023-04-08T04:17:59.872Z,38.83
2023-04-08T04:20:26.709Z,47.85
2023-04-08T04:22:53.376Z,49.10
2023-04-08T04:25:20.292Z,50.70
2023-04-08T04:27:47.018Z,48.03
2023-04-08T04:30:16.015Z,47.08
2023-04-08T04:32:43.650Z,41.70
2023-04-08T04:37:37.480Z,49.03
2023-04-08T04:40:05.402Z,43.25
2023-04-08T04:42:33.295Z,51.97
2023-04-08T04:45:00.537Z,51.22
2023-04-08T04:47:27.296Z,41.60
2023-04-08T04:49:54.051Z,50.40
2023-04-08T04:52:20.790Z,51.45
2023-04-08T04:54:47.550Z,51.75
2023-04-08T04:57:14.522Z,47.22
2023-04-08T04:59:41.273Z,50.53
2023-04-08T05:02:08.116Z,48.90
2023-04-08T05:04:34.960Z,43.13
2023-04-08T05:07:01.773Z,49.15
2023-04-08T05:09:29.935Z,43.28
2023-04-08T05:11:57.246Z,49.33
2023-04-08T05:14:24.093Z,46.33
2023-04-08T05:16:51.342Z,48.55
2023-04-08T05:19:18.052Z,53.08
2023-04-08T05:21:45.149Z,49.70
2023-04-08T05:24:12.024Z,44.90
2023-04-08T05:26:38.937Z,48.58
2023-04-08T05:29:05.737Z,54.67
2023-04-08T05:31:35.495Z,44.65
2023-04-08T05:34:02.247Z,45.08
2023-04-08T05:36:28.971Z,50.28
2023-04-08T05:38:55.938Z,51.50
2023-04-08T05:41:22.628Z,52.72
2023-04-08T05:43:49.374Z,53.08
2023-04-08T05:46:16.279Z,51.78
2023-04-08T05:48:43.067Z,51.42
2023-04-08T05:51:18.732Z,50.03
2023-04-08T05:53:47.021Z,49.60
2023-04-08T05:56:13.744Z,51.80
2023-04-08T05:58:40.721Z,48.67
2023-04-08T06:01:07.599Z,51.05
2023-04-08T06:03:34.417Z,50.45
2023-04-08T06:06:01.360Z,51.05
2023-04-08T06:08:28.080Z,49.50
2023-04-08T06:10:54.903Z,49.40
2023-04-08T06:13:22.218Z,50.53
2023-04-08T06:15:51.652Z,44.28
2023-04-08T06:18:18.449Z,51.13
2023-04-08T06:20:45.228Z,44.88
2023-04-08T06:23:12.322Z,42.70
2023-04-08T06:25:39.074Z,49.38
2023-04-08T06:28:05.877Z,45.17
2023-04-08T06:30:32.662Z,43.83
2023-04-08T06:32:59.666Z,39.97
2023-04-08T06:35:26.563Z,42.13
2023-04-08T06:37:53.367Z,50.85
2023-04-08T06:40:20.176Z,53.67
2023-04-08T06:42:46.927Z,57.38
2023-04-08T06:45:13.874Z,49.88
2023-04-08T06:47:42.758Z,49.92
2023-04-08T06:50:10.050Z,45.90
2023-04-08T06:52:36.740Z,49.92
2023-04-08T06:55:03.579Z,49.95
2023-04-08T06:57:30.372Z,43.25
2023-04-08T06:59:57.382Z,53.17
2023-04-08T07:02:24.478Z,44.55
2023-04-08T07:04:51.333Z,50.80
2023-04-08T07:07:18.195Z,48.85
2023-04-08T07:09:46.335Z,48.60
2023-04-08T07:12:13.235Z,48.70
2023-04-08T07:14:39.992Z,56.55
2023-04-08T07:17:06.956Z,52.88
2023-04-08T07:19:33.849Z,51.53
2023-04-08T07:22:00.864Z,52.05
2023-04-08T07:24:27.666Z,44.28
2023-04-08T07:26:56.367Z,40.58
2023-04-08T07:29:23.193Z,48.05
2023-04-08T07:31:49.892Z,49.42
2023-04-08T07:34:16.820Z,48.75
2023-04-08T07:36:43.537Z,41.67
2023-04-08T07:39:10.263Z,48.45
2023-04-08T07:41:36.956Z,51.58
2023-04-08T07:44:03.693Z,48.20
2023-04-08T07:46:31.813Z,49.40
2023-04-08T07:48:58.774Z,41.03
2023-04-08T07:51:25.454Z,42.17
2023-04-08T07:53:54.911Z,49.05
2023-04-08T07:56:21.876Z,47.40
2023-04-08T07:58:53.368Z,44.05
2023-04-08T08:01:22.764Z,50.63
2023-04-08T08:03:51.633Z,50.50
2023-04-08T08:06:19.187Z,49.38
2023-04-08T08:08:45.953Z,49.03
2023-04-08T08:11:12.949Z,49.40
2023-04-08T08:13:39.748Z,49.42
2023-04-08T08:16:09.365Z,51.47
2023-04-08T08:18:37.060Z,52.50
2023-04-08T08:23:30.663Z,45.17
2023-04-08T08:26:04.576Z,47.67
2023-04-08T08:33:26.198Z,49.15
2023-04-08T08:35:53.079Z,41.53
2023-04-08T08:38:19.963Z,50.95
2023-04-08T08:40:50.808Z,46.55
2023-04-08T08:43:17.668Z,48.33
2023-04-08T08:45:44.497Z,48.45
2023-04-08T08:48:11.290Z,48.65
2023-04-08T08:50:38.216Z,47.83
2023-04-08T08:53:04.943Z,47.20
2023-04-08T08:55:56.707Z,46.22
2023-04-08T08:58:20.862Z,47.47
2023-04-08T09:00:47.659Z,46.95
2023-04-08T09:03:28.232Z,45.05
2023-04-08T09:05:55.953Z,45.85
2023-04-08T09:08:36.556Z,43.13
2023-04-08T09:11:16.064Z,44.60
2023-04-08T09:13:43.506Z,46.67
2023-04-08T09:16:12.539Z,48.67
2023-04-08T09:19:09.611Z,46.88
2023-04-08T09:21:37.308Z,48.03
2023-04-08T09:24:04.531Z,48.65
2023-04-08T09:26:31.298Z,39.35
2023-04-08T09:29:18.423Z,43.38
2023-04-08T09:31:59.671Z,46.90
2023-04-08T09:34:28.516Z,45.28
2023-04-08T09:36:56.175Z,43.70
2023-04-08T09:39:23.257Z,46.40
2023-04-08T09:41:52.111Z,45.67
2023-04-08T09:44:21.523Z,44.42
2023-04-08T09:47:02.153Z,48.13
2023-04-08T09:52:12.107Z,43.78
2023-04-08T09:54:49.342Z,45.50
2023-04-08T09:57:22.359Z,58.90
2023-04-08T09:59:58.034Z,45.47
2023-04-08T10:02:31.533Z,45.53
2023-04-08T10:05:01.456Z,47.13
2023-04-08T10:07:28.193Z,41.80
2023-04-08T10:09:55.088Z,47.17
2023-04-08T10:12:21.950Z,57.63
2023-04-08T10:15:24.181Z,45.65
2023-04-08T10:17:52.450Z,42.53
2023-04-08T10:20:34.481Z,44.38
2023-04-08T10:23:05.230Z,45.28
2023-04-08T10:25:38.822Z,44.47
2023-04-08T10:28:26.023Z,53.05
2023-04-08T10:30:54.732Z,44.55
2023-04-08T10:33:23.092Z,48.05
2023-04-08T10:35:54.110Z,45.45
2023-04-08T10:38:21.795Z,43.85
2023-04-08T10:40:49.685Z,45.83
2023-04-08T10:43:16.475Z,41.97
2023-04-08T10:45:47.157Z,42.15
2023-04-08T10:48:20.880Z,42.42
2023-04-08T10:51:06.804Z,44.45
2023-04-08T10:53:39.951Z,43.30
2023-04-08T10:56:09.393Z,40.17
2023-04-08T10:58:37.040Z,41.90
2023-04-08T11:01:07.024Z,44.78
2023-04-08T11:03:35.299Z,32.60
2023-04-08T11:06:03.074Z,42.25
2023-04-08T11:08:30.679Z,40.35
2023-04-08T11:10:58.588Z,41.17
2023-04-08T11:13:26.136Z,39.90
2023-04-08T11:15:53.060Z,42.10
2023-04-08T11:18:22.003Z,41.35
2023-04-08T11:20:51.863Z,40.53
2023-04-08T11:23:18.826Z,40.53
2023-04-08T11:25:47.979Z,41.45
2023-04-08T11:28:15.133Z,38.78
2023-04-08T11:30:42.399Z,39.22
2023-04-08T11:33:09.737Z,33.22
2023-04-08T11:35:44.327Z,39.55
2023-04-08T11:38:12.293Z,40.03
2023-04-08T11:40:39.181Z,31.27
2023-04-08T11:43:13.116Z,38.67
2023-04-08T11:45:41.299Z,40.40
2023-04-08T11:48:16.593Z,38.50
2023-04-08T11:50:44.478Z,42.67
2023-04-08T11:53:21.628Z,40.03
2023-04-08T11:55:49.231Z,32.30
2023-04-08T11:58:17.002Z,39.83
2023-04-08T12:00:44.677Z,40.60
2023-04-08T12:03:12.403Z,52.50
2023-04-08T12:05:39.660Z,37.75
2023-04-08T12:08:06.778Z,34.85
2023-04-08T12:10:33.502Z,38.80
2023-04-08T12:13:00.535Z,30.98
2023-04-08T12:15:27.379Z,31.13
2023-04-08T12:17:54.227Z,37.92
2023-04-08T12:20:21.060Z,38.63
2023-04-08T12:22:47.832Z,31.67
2023-04-08T12:25:14.545Z,37.92
2023-04-08T12:27:41.298Z,30.63
2023-04-08T12:30:08.764Z,36.97
2023-04-08T12:32:35.562Z,36.08
2023-04-08T12:35:02.331Z,37.67
2023-04-08T12:37:29.147Z,38.20
2023-04-08T12:39:56.055Z,38.42
2023-04-08T12:42:22.825Z,38.80
2023-04-08T12:44:49.905Z,37.53
2023-04-08T12:47:16.718Z,36.75
2023-04-08T12:49:49.456Z,38.47
2023-04-08T12:52:17.681Z,37.85
2023-04-08T12:54:44.835Z,37.30
2023-04-08T12:57:12.012Z,37.30
2023-04-08T12:59:40.163Z,36.58
2023-04-08T13:02:08.228Z,36.40
2023-04-08T13:04:35.352Z,30.27
2023-04-08T13:07:02.569Z,37.22
2023-04-08T13:09:30.829Z,37.65
2023-04-08T13:11:58.567Z,39.22
2023-04-08T13:14:25.862Z,38.70
2023-04-08T13:16:52.727Z,38.85
2023-04-08T13:19:19.655Z,38.50
2023-04-08T13:21:46.627Z,37.33
2023-04-08T13:24:13.428Z,38.35
2023-04-08T13:26:40.542Z,38.40
2023-04-08T13:29:07.466Z,37.85
2023-04-08T13:31:34.368Z,36.28
2023-04-08T13:34:01.369Z,30.38
2023-04-08T13:36:29.275Z,39.60
2023-04-08T13:38:56.868Z,39.22
2023-04-08T13:41:23.721Z,32.42
2023-04-08T13:43:50.664Z,38.90
2023-04-08T13:46:18.326Z,31.55
2023-04-08T13:48:46.190Z,38.08
2023-04-08T13:51:12.934Z,37.10
2023-04-08T13:53:39.677Z,38.75
2023-04-08T13:56:06.847Z,38.00
2023-04-08T13:58:33.748Z,38.38
2023-04-08T14:01:00.539Z,38.65
2023-04-08T14:03:28.286Z,37.10
2023-04-08T14:05:55.158Z,33.00
2023-04-08T14:08:25.849Z,31.38
2023-04-08T14:10:53.439Z,47.00
2023-04-08T14:13:23.096Z,36.80
2023-04-08T14:15:50.132Z,29.67
2023-04-08T14:18:19.974Z,37.40
2023-04-08T14:20:47.376Z,37.00
2023-04-08T14:23:14.060Z,32.80
2023-04-08T14:25:41.094Z,31.55
2023-04-08T14:28:08.281Z,38.88
2023-04-08T14:30:36.868Z,32.40
2023-04-08T14:33:05.484Z,34.90
2023-04-08T14:35:32.797Z,30.40
2023-04-08T14:38:00.110Z,30.38
2023-04-08T14:40:27.081Z,36.28
2023-04-08T14:42:54.057Z,40.92
2023-04-08T14:45:20.944Z,29.30
2023-04-08T14:47:50.671Z,35.80
2023-04-08T14:50:17.692Z,35.38
2023-04-08T14:52:45.475Z,37.05
2023-04-08T14:55:12.398Z,34.42
2023-04-08T14:57:39.110Z,34.90
2023-04-08T15:00:07.906Z,29.35
2023-04-08T15:02:37.604Z,35.65
2023-04-08T15:05:04.891Z,34.92
2023-04-08T15:07:32.165Z,35.33
2023-04-08T15:09:58.906Z,29.63
2023-04-08T15:12:26.219Z,36.00
2023-04-08T15:17:19.672Z,34.92
2023-04-08T15:19:47.074Z,37.28
2023-04-08T15:22:13.874Z,34.22
2023-04-08T15:24:40.701Z,34.55
2023-04-08T15:27:07.793Z,38.60
2023-04-08T15:29:34.582Z,36.42
2023-04-08T15:32:01.636Z,47.53
2023-04-08T15:34:28.677Z,36.33
2023-04-08T15:36:57.380Z,36.40
2023-04-08T15:39:24.482Z,38.85
2023-04-08T15:41:51.302Z,39.53
2023-04-08T15:44:18.062Z,36.50
2023-04-08T15:46:44.923Z,37.13
2023-04-08T15:49:11.949Z,37.15
2023-04-08T15:51:38.684Z,31.15
2023-04-08T15:54:05.581Z,29.45
2023-04-08T15:56:33.793Z,37.17
2023-04-08T15:59:00.805Z,35.67
2023-04-08T16:01:27.549Z,36.05
2023-04-08T16:03:54.369Z,37.92
2023-04-08T16:06:21.215Z,38.95
2023-04-08T16:08:48.683Z,38.03
2023-04-08T16:11:15.773Z,38.55
2023-04-08T16:13:42.992Z,36.85
2023-04-08T16:18:36.465Z,37.60
2023-04-08T16:21:06.097Z,33.22
2023-04-08T16:23:34.253Z,34.35
2023-04-08T16:26:01.764Z,40.35
2023-04-08T16:28:28.542Z,32.42
2023-04-08T16:30:55.617Z,40.85
2023-04-08T16:33:30.035Z,39.78
2023-04-08T16:35:57.945Z,41.65
2023-04-08T16:38:25.618Z,33.17
2023-04-08T16:40:53.744Z,44.05
2023-04-08T16:43:21.294Z,43.25
2023-04-08T16:45:48.743Z,41.63
2023-04-08T16:48:15.489Z,41.03
2023-04-08T16:50:42.944Z,40.88
2023-04-08T16:55:36.856Z,42.55
2023-04-08T16:58:08.921Z,43.80
2023-04-08T17:00:36.547Z,44.15
2023-04-08T17:03:06.715Z,39.60
2023-04-08T17:05:33.679Z,43.40
2023-04-08T17:08:00.834Z,42.90
2023-04-08T17:10:27.833Z,35.65
2023-04-08T17:12:54.722Z,36.45
2023-04-08T17:15:21.580Z,37.05
2023-04-08T17:17:48.768Z,42.72
2023-04-08T17:20:15.849Z,42.83
2023-04-08T17:22:42.628Z,36.08
2023-04-08T17:25:09.847Z,42.95
2023-04-08T17:27:36.801Z,44.78
2023-04-08T17:30:03.939Z,43.22
2023-04-08T17:32:30.744Z,42.90
2023-04-08T17:34:57.488Z,45.38
2023-04-08T17:37:24.352Z,43.08
2023-04-08T17:39:51.854Z,44.38
2023-04-08T17:42:22.526Z,45.95
2023-04-08T17:44:49.385Z,45.38
2023-04-08T17:47:16.489Z,46.45
2023-04-08T17:49:43.276Z,46.92
2023-04-08T17:52:10.103Z,48.30
2023-04-08T17:54:36.890Z,47.50
2023-04-08T17:57:03.752Z,49.05
2023-04-08T17:59:30.582Z,48.45
2023-04-08T18:01:57.447Z,49.30
2023-04-08T18:04:24.348Z,48.88
2023-04-08T18:06:51.121Z,48.30
2023-04-08T18:09:17.833Z,45.05
2023-04-08T18:11:44.565Z,47.92
2023-04-08T18:14:12.743Z,55.08
2023-04-08T18:16:39.655Z,47.45
2023-04-08T18:19:06.494Z,44.45
2023-04-08T18:21:33.353Z,38.85
2023-04-08T18:24:00.089Z,45.80
2023-04-08T18:26:28.489Z,45.00
2023-04-08T18:28:55.396Z,45.55
2023-04-08T18:31:22.462Z,46.45
2023-04-08T18:33:49.796Z,45.30
2023-04-08T18:36:17.676Z,43.83
2023-04-08T18:38:44.924Z,44.83
2023-04-08T18:41:13.546Z,43.47
2023-04-08T18:43:40.470Z,44.38
2023-04-08T18:46:07.289Z,56.60
2023-04-08T18:48:34.122Z,45.58
2023-04-08T18:51:02.014Z,45.45
2023-04-08T18:53:29.136Z,46.47
2023-04-08T18:55:56.439Z,49.50
2023-04-08T18:58:23.173Z,48.80
2023-04-08T19:00:50.012Z,47.60
2023-04-08T19:03:17.339Z,47.38
2023-04-08T19:05:44.137Z,48.65
2023-04-08T19:08:10.918Z,49.15
2023-04-08T19:10:39.173Z,51.67
2023-04-08T19:13:05.935Z,49.97
2023-04-08T19:15:32.713Z,48.58
2023-04-08T19:17:59.532Z,53.03
2023-04-08T19:20:27.449Z,50.25
2023-04-08T19:22:54.172Z,56.92
2023-04-08T19:25:21.114Z,56.17
2023-04-08T19:27:47.924Z,55.25
2023-04-08T19:30:15.061Z,57.47
2023-04-08T19:32:43.327Z,55.10
2023-04-08T19:35:12.701Z,51.28
2023-04-08T19:37:39.554Z,51.92
2023-04-08T19:40:08.390Z,52.28
2023-04-08T19:42:35.239Z,52.05
2023-04-08T19:45:02.600Z,46.00
2023-04-08T19:47:29.933Z,46.28
2023-04-08T19:49:58.440Z,54.75
2023-04-08T19:52:25.574Z,52.85
2023-04-08T19:54:53.635Z,43.00
2023-04-08T19:57:20.999Z,40.70
2023-04-08T19:59:50.434Z,43.95
2023-04-08T20:02:17.282Z,50.35
2023-04-08T20:04:45.741Z,53.78
2023-04-08T20:07:13.185Z,51.25
2023-04-08T20:09:39.969Z,53.70
2023-04-08T20:12:07.030Z,46.50
2023-04-08T20:14:35.972Z,55.13
2023-04-08T20:17:03.032Z,49.47
2023-04-08T20:19:29.837Z,46.67
2023-04-08T20:21:57.599Z,54.03
2023-04-08T20:24:24.410Z,56.65
2023-04-08T20:26:52.546Z,55.80
2023-04-08T20:29:19.635Z,49.10
2023-04-08T20:31:46.845Z,57.50
2023-04-08T20:34:13.947Z,48.35
2023-04-08T20:36:41.334Z,56.70
2023-04-08T20:39:11.941Z,54.85
2023-04-08T20:41:38.942Z,56.00
2023-04-08T20:44:07.184Z,57.65
2023-04-08T20:46:35.374Z,53.90
2023-04-08T20:49:03.932Z,61.55
2023-04-08T20:51:31.646Z,58.50
2023-04-08T20:53:58.523Z,57.13
2023-04-08T20:56:26.592Z,61.28
2023-04-08T20:58:53.698Z,59.10
2023-04-08T21:01:21.765Z,51.72
2023-04-08T21:03:49.305Z,57.42
2023-04-08T21:06:18.048Z,55.28
2023-04-08T21:08:45.929Z,58.88
2023-04-08T21:11:12.828Z,58.30
2023-04-08T21:13:39.791Z,57.65
2023-04-08T21:16:07.683Z,57.92
2023-04-08T21:18:34.662Z,56.78
2023-04-08T21:21:01.717Z,59.22
2023-04-08T21:23:28.525Z,62.72
2023-04-08T21:25:55.460Z,50.42
2023-04-08T21:28:22.272Z,54.35
2023-04-08T21:30:49.054Z,54.63
2023-04-08T21:33:15.843Z,52.90
2023-04-08T21:35:42.620Z,50.58
2023-04-08T21:38:09.417Z,54.00
2023-04-08T21:40:36.192Z,56.50
2023-04-08T21:43:02.902Z,52.15
2023-04-08T21:45:30.207Z,44.22
2023-04-08T21:47:57.015Z,53.50
2023-04-08T21:50:23.790Z,51.10
2023-04-08T21:52:50.532Z,53.45
2023-04-08T21:55:17.309Z,51.35
2023-04-08T21:57:43.994Z,51.65
2023-04-08T22:00:13.762Z,45.58
2023-04-08T22:02:41.397Z,44.40
2023-04-08T22:05:09.469Z,54.25
2023-04-08T22:07:36.489Z,57.92
2023-04-08T22:10:03.351Z,54.90
2023-04-08T22:12:30.914Z,55.72
2023-04-08T22:14:57.992Z,53.85
2023-04-08T22:17:25.029Z,54.83
2023-04-08T22:19:51.816Z,53.67
2023-04-08T22:22:18.985Z,55.15
2023-04-08T22:24:45.746Z,53.47
2023-04-08T22:27:12.545Z,53.78
2023-04-08T22:29:39.286Z,54.55
2023-04-08T22:32:06.458Z,53.90
2023-04-08T22:34:33.152Z,57.55
2023-04-08T22:36:59.942Z,54.05
2023-04-08T22:39:27.682Z,53.38
2023-04-08T22:41:54.552Z,53.50
2023-04-08T22:44:21.376Z,52.83
2023-04-08T22:46:48.114Z,54.92
2023-04-08T22:49:14.873Z,55.65
2023-04-08T22:51:43.121Z,54.88
2023-04-08T22:54:09.873Z,54.55
2023-04-08T22:56:46.452Z,57.28
2023-04-08T22:59:13.161Z,46.42
2023-04-08T23:01:41.780Z,55.75
2023-04-08T23:04:08.618Z,57.38
2023-04-08T23:06:35.673Z,49.38
2023-04-08T23:09:02.425Z,55.47
2023-04-08T23:11:29.175Z,56.33
2023-04-08T23:13:55.908Z,48.30
2023-04-08T23:16:22.826Z,56.42
2023-04-08T23:18:49.696Z,55.97
2023-04-08T23:21:16.544Z,58.50
2023-04-08T23:23:43.248Z,57.05
2023-04-08T23:26:19.920Z,57.90
2023-04-08T23:28:46.907Z,57.53
2023-04-08T23:31:13.948Z,55.25
2023-04-08T23:33:40.743Z,58.13
2023-04-08T23:36:10.521Z,56.72
2023-04-08T23:38:37.556Z,59.83
2023-04-08T23:41:05.201Z,57.30
2023-04-08T23:43:32.213Z,55.03
2023-04-08T23:45:59.087Z,46.05
2023-04-08T23:48:26.133Z,54.67
2023-04-08T23:50:56.250Z,56.90
2023-04-08T23:53:23.031Z,56.42
2023-04-08T23:55:49.796Z,56.08
2023-04-08T23:58:16.577Z,57.13
